sensor_id;sensor_type;location;lat;lon;timestamp;pressure;altitude;pressure_sealevel;temperature;humidity
6094;BME280;19964;42.060;24.700;2024-01-15T00:01:21;97012.44;;;-1.59;95.97
6094;BME280;19964;42.060;24.700;2024-01-15T00:03:49;97012.78;;;-1.70;96.31
6094;BME280;19964;42.060;24.700;2024-01-15T00:06:16;97011.84;;;-1.77;98.26
6094;BME280;19964;42.060;24.700;2024-01-15T00:08:43;97017.06;;;-1.63;98.13
6094;BME280;19964;42.060;24.700;2024-01-15T00:11:10;97009.28;;;-1.69;97.52
6094;BME280;19964;42.060;24.700;2024-01-15T00:13:37;96990.75;;;-1.86;98.53
6094;BME280;19964;42.060;24.700;2024-01-15T00:16:04;97002.78;;;-1.96;99.90
6094;BME280;19964;42.060;24.700;2024-01-15T00:18:31;96998.06;;;-1.99;100.00
6094;BME280;19964;42.060;24.700;2024-01-15T00:21:00;96996.78;;;-1.95;100.00
6094;BME280;19964;42.060;24.700;2024-01-15T00:23:26;96989.16;;;-1.87;100.00
6094;BME280;19964;42.060;24.700;2024-01-15T00:25:53;96994.09;;;-2.02;100.00
6094;BME280;19964;42.060;24.700;2024-01-15T00:28:20;96988.53;;;-2.13;100.00
6094;BME280;19964;42.060;24.700;2024-01-15T00:30:47;96994.06;;;-2.18;100.00
6094;BME280;19964;42.060;24.700;2024-01-15T00:33:14;96990.09;;;-2.04;100.00
6094;BME280;19964;42.060;24.700;2024-01-15T00:35:41;96989.31;;;-1.97;100.00
6094;BME280;19964;42.060;24.700;2024-01-15T00:38:09;96985.34;;;-1.91;100.00
6094;BME280;19964;42.060;24.700;2024-01-15T00:40:36;96979.16;;;-1.89;99.71
6094;BME280;19964;42.060;24.700;2024-01-15T00:43:03;96957.75;;;-1.86;95.39
6094;BME280;19964;42.060;24.700;2024-01-15T00:45:33;96959.00;;;-1.66;93.56
6094;BME280;19964;42.060;24.700;2024-01-15T00:48:00;96989.91;;;-1.46;94.39
6094;BME280;19964;42.060;24.700;2024-01-15T00:50:26;96961.72;;;-1.84;96.16
6094;BME280;19964;42.060;24.700;2024-01-15T00:52:53;96986.44;;;-1.69;95.82
6094;BME280;19964;42.060;24.700;2024-01-15T00:55:22;96989.75;;;-1.61;94.71
6094;BME280;19964;42.060;24.700;2024-01-15T00:57:49;96977.25;;;-1.62;94.03
6094;BME280;19964;42.060;24.700;2024-01-15T01:00:16;96983.25;;;-1.71;95.03
6094;BME280;19964;42.060;24.700;2024-01-15T01:02:43;96977.88;;;-1.76;95.50
6094;BME280;19964;42.060;24.700;2024-01-15T01:05:10;96979.16;;;-1.89;97.04
6094;BME280;19964;42.060;24.700;2024-01-15T01:07:37;96983.13;;;-2.02;98.78
6094;BME280;19964;42.060;24.700;2024-01-15T01:10:05;96987.88;;;-1.91;98.66
6094;BME280;19964;42.060;24.700;2024-01-15T01:12:33;96978.22;;;-1.96;98.86
6094;BME280;19964;42.060;24.700;2024-01-15T01:15:00;96977.59;;;-1.90;98.22
6094;BME280;19964;42.060;24.700;2024-01-15T01:17:27;96974.72;;;-2.03;98.62
6094;BME280;19964;42.060;24.700;2024-01-15T01:19:56;96960.00;;;-2.07;99.51
6094;BME280;19964;42.060;24.700;2024-01-15T01:22:23;96958.72;;;-2.11;100.00
6094;BME280;19964;42.060;24.700;2024-01-15T01:24:50;96961.56;;;-2.06;100.00
6094;BME280;19964;42.060;24.700;2024-01-15T01:27:17;96943.19;;;-2.16;100.00
6094;BME280;19964;42.060;24.700;2024-01-15T01:29:45;96961.09;;;-2.10;100.00
6094;BME280;19964;42.060;24.700;2024-01-15T01:32:12;96958.88;;;-2.05;100.00
6094;BME280;19964;42.060;24.700;2024-01-15T01:34:40;96951.88;;;-2.03;100.00
6094;BME280;19964;42.060;24.700;2024-01-15T01:37:08;96943.19;;;-2.00;100.00
6094;BME280;19964;42.060;24.700;2024-01-15T01:39:35;96946.97;;;-1.88;99.37
6094;BME280;19964;42.060;24.700;2024-01-15T01:42:02;96931.72;;;-1.72;96.29
6094;BME280;19964;42.060;24.700;2024-01-15T01:44:29;96955.63;;;-1.50;94.16
6094;BME280;19964;42.060;24.700;2024-01-15T01:46:59;96942.44;;;-1.46;91.68
6094;BME280;19964;42.060;24.700;2024-01-15T01:49:27;96942.75;;;-1.49;92.00
6094;BME280;19964;42.060;24.700;2024-01-15T01:51:57;96970.34;;;-1.38;91.51
6094;BME280;19964;42.060;24.700;2024-01-15T01:54:24;96947.56;;;-1.62;92.35
6094;BME280;19964;42.060;24.700;2024-01-15T01:56:52;96962.28;;;-1.49;92.72
6094;BME280;19964;42.060;24.700;2024-01-15T01:59:19;96963.25;;;-1.50;91.90
6094;BME280;19964;42.060;24.700;2024-01-15T02:01:48;96964.53;;;-1.62;93.33
6094;BME280;19964;42.060;24.700;2024-01-15T02:04:17;96948.69;;;-1.81;94.98
6094;BME280;19964;42.060;24.700;2024-01-15T02:06:44;96931.47;;;-2.01;96.80
6094;BME280;19964;42.060;24.700;2024-01-15T02:09:11;96939.34;;;-1.80;96.86
6094;BME280;19964;42.060;24.700;2024-01-15T02:11:40;96942.06;;;-1.82;95.68
6094;BME280;19964;42.060;24.700;2024-01-15T02:14:08;96874.75;;;-2.32;96.47
6094;BME280;19964;42.060;24.700;2024-01-15T02:16:35;96936.19;;;-1.98;96.22
6094;BME280;19964;42.060;24.700;2024-01-15T02:19:02;96944.75;;;-1.91;95.71
6094;BME280;19964;42.060;24.700;2024-01-15T02:21:31;96953.16;;;-1.91;95.64
6094;BME280;19964;42.060;24.700;2024-01-15T02:24:00;96951.41;;;-1.74;95.59
6094;BME280;19964;42.060;24.700;2024-01-15T02:26:27;96920.53;;;-2.18;96.90
6094;BME280;19964;42.060;24.700;2024-01-15T02:28:54;96935.91;;;-2.11;99.35
6094;BME280;19964;42.060;24.700;2024-01-15T02:31:22;96932.56;;;-2.04;98.98
6094;BME280;19964;42.060;24.700;2024-01-15T02:33:49;96932.72;;;-1.97;98.38
6094;BME280;19964;42.060;24.700;2024-01-15T02:36:16;96935.56;;;-2.08;98.47
6094;BME280;19964;42.060;24.700;2024-01-15T02:38:43;96938.44;;;-2.11;98.99
6094;BME280;19964;42.060;24.700;2024-01-15T02:41:11;96941.09;;;-1.97;98.94
6094;BME280;19964;42.060;24.700;2024-01-15T02:43:39;96945.72;;;-2.00;98.64
6094;BME280;19964;42.060;24.700;2024-01-15T02:46:07;96943.81;;;-2.14;98.96
6094;BME280;19964;42.060;24.700;2024-01-15T02:48:34;96918.31;;;-2.21;99.29
6094;BME280;19964;42.060;24.700;2024-01-15T02:51:01;96937.63;;;-2.12;99.30
6094;BME280;19964;42.060;24.700;2024-01-15T02:53:28;96930.81;;;-2.11;99.60
6094;BME280;19964;42.060;24.700;2024-01-15T02:55:55;96931.00;;;-2.21;100.00
6094;BME280;19964;42.060;24.700;2024-01-15T02:58:24;96926.84;;;-2.38;100.00
6094;BME280;19964;42.060;24.700;2024-01-15T03:00:51;96930.53;;;-2.32;100.00
6094;BME280;19964;42.060;24.700;2024-01-15T03:03:19;96934.78;;;-2.41;100.00
6094;BME280;19964;42.060;24.700;2024-01-15T03:05:46;96932.09;;;-2.39;100.00
6094;BME280;19964;42.060;24.700;2024-01-15T03:08:13;96920.03;;;-2.45;100.00
6094;BME280;19964;42.060;24.700;2024-01-15T03:10:40;96925.75;;;-2.43;100.00
6094;BME280;19964;42.060;24.700;2024-01-15T03:13:07;96917.50;;;-2.37;100.00
6094;BME280;19964;42.060;24.700;2024-01-15T03:15:35;96922.41;;;-2.28;100.00
6094;BME280;19964;42.060;24.700;2024-01-15T03:18:03;96924.19;;;-2.28;100.00
6094;BME280;19964;42.060;24.700;2024-01-15T03:20:30;96922.91;;;-2.40;100.00
6094;BME280;19964;42.060;24.700;2024-01-15T03:22:57;96918.13;;;-2.43;100.00
6094;BME280;19964;42.060;24.700;2024-01-15T03:25:24;96918.00;;;-2.42;100.00
6094;BME280;19964;42.060;24.700;2024-01-15T03:27:52;96919.13;;;-2.36;100.00
6094;BME280;19964;42.060;24.700;2024-01-15T03:30:19;96906.91;;;-2.33;100.00
6094;BME280;19964;42.060;24.700;2024-01-15T03:32:47;96891.38;;;-2.46;100.00
6094;BME280;19964;42.060;24.700;2024-01-15T03:35:15;96890.13;;;-2.50;100.00
6094;BME280;19964;42.060;24.700;2024-01-15T03:37:42;96905.47;;;-2.43;100.00
6094;BME280;19964;42.060;24.700;2024-01-15T03:40:10;96906.25;;;-2.51;100.00
6094;BME280;19964;42.060;24.700;2024-01-15T03:42:38;96909.44;;;-2.49;100.00
6094;BME280;19964;42.060;24.700;2024-01-15T03:45:05;96911.97;;;-2.57;100.00
6094;BME280;19964;42.060;24.700;2024-01-15T03:47:32;96916.41;;;-2.51;100.00
6094;BME280;19964;42.060;24.700;2024-01-15T03:50:01;96924.66;;;-2.41;100.00
6094;BME280;19964;42.060;24.700;2024-01-15T03:52:28;96891.84;;;-2.50;100.00
6094;BME280;19964;42.060;24.700;2024-01-15T03:54:55;96924.19;;;-2.36;100.00
6094;BME280;19964;42.060;24.700;2024-01-15T03:57:22;96920.84;;;-2.45;100.00
6094;BME280;19964;42.060;24.700;2024-01-15T03:59:49;96917.03;;;-2.41;100.00
6094;BME280;19964;42.060;24.700;2024-01-15T04:02:16;96912.44;;;-2.45;100.00
6094;BME280;19964;42.060;24.700;2024-01-15T04:04:44;96917.03;;;-2.41;100.00
6094;BME280;19964;42.060;24.700;2024-01-15T04:07:12;96920.84;;;-2.45;100.00
6094;BME280;19964;42.060;24.700;2024-01-15T04:09:39;96908.16;;;-2.53;100.00
6094;BME280;19964;42.060;24.700;2024-01-15T04:12:07;96911.16;;;-2.49;100.00
6094;BME280;19964;42.060;24.700;2024-01-15T04:14:34;96899.59;;;-2.68;100.00
6094;BME280;19964;42.060;24.700;2024-01-15T04:17:01;96916.09;;;-2.56;100.00
6094;BME280;19964;42.060;24.700;2024-01-15T04:19:28;96895.81;;;-2.64;100.00
6094;BME280;19964;42.060;24.700;2024-01-15T04:21:55;96914.19;;;-2.62;100.00
6094;BME280;19964;42.060;24.700;2024-01-15T04:24:24;96902.16;;;-2.60;100.00
6094;BME280;19964;42.060;24.700;2024-01-15T04:26:51;96900.09;;;-2.48;100.00
6094;BME280;19964;42.060;24.700;2024-01-15T04:29:18;96889.63;;;-2.45;100.00
6094;BME280;19964;42.060;24.700;2024-01-15T04:31:45;96902.78;;;-2.34;100.00
6094;BME280;19964;42.060;24.700;2024-01-15T04:34:12;96898.84;;;-2.36;100.00
6094;BME280;19964;42.060;24.700;2024-01-15T04:36:39;96890.41;;;-2.45;100.00
6094;BME280;19964;42.060;24.700;2024-01-15T04:39:07;96882.00;;;-2.45;100.00
6094;BME280;19964;42.060;24.700;2024-01-15T04:41:35;96849.56;;;-2.74;100.00
6094;BME280;19964;42.060;24.700;2024-01-15T04:44:02;96860.97;;;-2.62;100.00
6094;BME280;19964;42.060;24.700;2024-01-15T04:46:29;96870.31;;;-2.62;100.00
6094;BME280;19964;42.060;24.700;2024-01-15T04:48:56;96873.31;;;-2.59;100.00
6094;BME280;19964;42.060;24.700;2024-01-15T04:51:23;96869.84;;;-2.50;100.00
6094;BME280;19964;42.060;24.700;2024-01-15T04:53:50;96871.25;;;-2.31;100.00
6094;BME280;19964;42.060;24.700;2024-01-15T04:56:17;96865.69;;;-2.19;99.87
6094;BME280;19964;42.060;24.700;2024-01-15T04:58:46;96883.56;;;-2.12;98.09
6094;BME280;19964;42.060;24.700;2024-01-15T05:01:13;96878.47;;;-1.96;95.63
6094;BME280;19964;42.060;24.700;2024-01-15T05:03:42;96876.41;;;-2.01;95.41
6094;BME280;19964;42.060;24.700;2024-01-15T05:06:09;96860.78;;;-2.36;98.16
6094;BME280;19964;42.060;24.700;2024-01-15T05:08:36;96862.81;;;-2.24;98.84
6094;BME280;19964;42.060;24.700;2024-01-15T05:11:03;96875.81;;;-2.11;98.35
6094;BME280;19964;42.060;24.700;2024-01-15T05:13:30;96793.63;;;-2.40;97.74
6094;BME280;19964;42.060;24.700;2024-01-15T05:15:58;96864.25;;;-2.05;97.12
6094;BME280;19964;42.060;24.700;2024-01-15T05:18:26;96863.91;;;-2.10;97.63
6094;BME280;19964;42.060;24.700;2024-01-15T05:20:52;96856.09;;;-1.93;96.99
6094;BME280;19964;42.060;24.700;2024-01-15T05:23:20;96845.31;;;-1.87;96.21
6094;BME280;19964;42.060;24.700;2024-01-15T05:25:47;96838.38;;;-2.09;97.38
6094;BME280;19964;42.060;24.700;2024-01-15T05:28:14;96831.41;;;-2.07;97.54
6094;BME280;19964;42.060;24.700;2024-01-15T05:30:41;96820.75;;;-1.94;97.08
6094;BME280;19964;42.060;24.700;2024-01-15T05:33:09;96815.22;;;-1.98;96.29
6094;BME280;19964;42.060;24.700;2024-01-15T05:35:36;96807.47;;;-2.12;96.67
6094;BME280;19964;42.060;24.700;2024-01-15T05:38:04;96821.09;;;-1.97;96.13
6094;BME280;19964;42.060;24.700;2024-01-15T05:40:31;96824.03;;;-2.40;98.68
6094;BME280;19964;42.060;24.700;2024-01-15T05:42:58;96831.47;;;-2.23;99.16
6094;BME280;19964;42.060;24.700;2024-01-15T05:45:26;96829.22;;;-2.26;98.70
6094;BME280;19964;42.060;24.700;2024-01-15T05:47:53;96848.13;;;-2.28;98.81
6094;BME280;19964;42.060;24.700;2024-01-15T05:50:22;96853.81;;;-2.34;98.94
6094;BME280;19964;42.060;24.700;2024-01-15T05:52:49;96861.44;;;-2.26;99.53
6094;BME280;19964;42.060;24.700;2024-01-15T05:55:16;96871.41;;;-2.41;99.59
6094;BME280;19964;42.060;24.700;2024-01-15T05:57:43;96851.00;;;-2.63;100.00
6094;BME280;19964;42.060;24.700;2024-01-15T06:00:11;96865.06;;;-2.69;100.00
6094;BME280;19964;42.060;24.700;2024-01-15T06:02:38;96861.44;;;-2.50;100.00
6094;BME280;19964;42.060;24.700;2024-01-15T06:05:06;96853.19;;;-2.44;100.00
6094;BME280;19964;42.060;24.700;2024-01-15T06:07:34;96846.53;;;-2.45;100.00
6094;BME280;19964;42.060;24.700;2024-01-15T06:10:02;96840.19;;;-2.49;100.00
6094;BME280;19964;42.060;24.700;2024-01-15T06:12:30;96795.38;;;-2.73;100.00
6094;BME280;19964;42.060;24.700;2024-01-15T06:14:57;96828.47;;;-2.42;100.00
6094;BME280;19964;42.060;24.700;2024-01-15T06:17:24;96833.84;;;-2.37;100.00
6094;BME280;19964;42.060;24.700;2024-01-15T06:19:51;96829.91;;;-2.48;100.00
6094;BME280;19964;42.060;24.700;2024-01-15T06:22:18;96832.59;;;-2.49;100.00
6094;BME280;19964;42.060;24.700;2024-01-15T06:24:47;96871.88;;;-2.29;100.00
6094;BME280;19964;42.060;24.700;2024-01-15T06:27:14;96866.00;;;-2.22;100.00
6094;BME280;19964;42.060;24.700;2024-01-15T06:29:44;96860.47;;;-2.25;100.00
6094;BME280;19964;42.060;24.700;2024-01-15T06:32:12;96851.03;;;-1.93;100.00
6094;BME280;19964;42.060;24.700;2024-01-15T06:34:39;96853.41;;;-1.91;100.00
6094;BME280;19964;42.060;24.700;2024-01-15T06:37:06;96862.94;;;-1.93;100.00
6094;BME280;19964;42.060;24.700;2024-01-15T06:39:34;96869.41;;;-1.91;100.00
6094;BME280;19964;42.060;24.700;2024-01-15T06:42:03;96880.47;;;-1.75;99.84
6094;BME280;19964;42.060;24.700;2024-01-15T06:44:30;96870.84;;;-1.80;100.00
6094;BME280;19964;42.060;24.700;2024-01-15T06:46:57;96860.03;;;-1.74;100.00
6094;BME280;19964;42.060;24.700;2024-01-15T06:49:28;96858.59;;;-1.76;100.00
6094;BME280;19964;42.060;24.700;2024-01-15T06:51:55;96861.47;;;-1.79;100.00
6094;BME280;19964;42.060;24.700;2024-01-15T06:54:22;96859.69;;;-1.71;100.00
6094;BME280;19964;42.060;24.700;2024-01-15T06:56:49;96856.03;;;-1.68;100.00
6094;BME280;19964;42.060;24.700;2024-01-15T06:59:17;96857.50;;;-1.82;100.00
6094;BME280;19964;42.060;24.700;2024-01-15T07:01:44;96846.50;;;-1.66;100.00
6094;BME280;19964;42.060;24.700;2024-01-15T07:04:11;96852.34;;;-1.58;100.00
6094;BME280;19964;42.060;24.700;2024-01-15T07:06:38;96848.56;;;-1.31;100.00
6094;BME280;19964;42.060;24.700;2024-01-15T07:09:05;96857.06;;;-1.16;100.00
6094;BME280;19964;42.060;24.700;2024-01-15T07:11:34;96849.66;;;-1.03;100.00
6094;BME280;19964;42.060;24.700;2024-01-15T07:14:01;96831.97;;;-0.88;99.99
6094;BME280;19964;42.060;24.700;2024-01-15T07:16:29;96827.69;;;-0.73;97.69
6094;BME280;19964;42.060;24.700;2024-01-15T07:18:56;96835.94;;;-0.49;96.70
6094;BME280;19964;42.060;24.700;2024-01-15T07:21:23;96827.38;;;-0.33;95.71
6094;BME280;19964;42.060;24.700;2024-01-15T07:23:50;96833.25;;;-0.04;93.39
6094;BME280;19964;42.060;24.700;2024-01-15T07:26:17;96840.63;;;0.35;92.56
6094;BME280;19964;42.060;24.700;2024-01-15T07:28:44;96859.31;;;1.07;90.02
6094;BME280;19964;42.060;24.700;2024-01-15T07:31:11;96859.94;;;1.79;87.11
6094;BME280;19964;42.060;24.700;2024-01-15T07:33:39;96853.06;;;1.52;83.98
6094;BME280;19964;42.060;24.700;2024-01-15T07:36:07;96875.75;;;1.68;81.87
6094;BME280;19964;42.060;24.700;2024-01-15T07:38:34;96876.25;;;2.46;79.99
6094;BME280;19964;42.060;24.700;2024-01-15T07:41:01;96887.66;;;2.91;77.12
6094;BME280;19964;42.060;24.700;2024-01-15T07:43:28;96888.22;;;3.47;75.25
6094;BME280;19964;42.060;24.700;2024-01-15T07:45:55;96845.31;;;3.69;71.63
6094;BME280;19964;42.060;24.700;2024-01-15T07:48:22;96883.31;;;4.75;67.47
6094;BME280;19964;42.060;24.700;2024-01-15T07:50:51;96889.25;;;5.51;64.71
6094;BME280;19964;42.060;24.700;2024-01-15T07:53:18;96873.38;;;6.16;62.62
6094;BME280;19964;42.060;24.700;2024-01-15T07:55:45;96856.44;;;6.26;60.18
6094;BME280;19964;42.060;24.700;2024-01-15T07:58:12;96883.91;;;6.69;58.68
6094;BME280;19964;42.060;24.700;2024-01-15T08:00:39;96884.28;;;6.72;59.52
6094;BME280;19964;42.060;24.700;2024-01-15T08:03:06;96892.19;;;6.89;59.70
6094;BME280;19964;42.060;24.700;2024-01-15T08:05:33;96903.06;;;7.39;58.49
6094;BME280;19964;42.060;24.700;2024-01-15T08:08:01;96906.13;;;7.59;57.23
6094;BME280;19964;42.060;24.700;2024-01-15T08:10:28;96916.66;;;7.98;56.79
6094;BME280;19964;42.060;24.700;2024-01-15T08:12:55;96919.16;;;9.14;54.32
6094;BME280;19964;42.060;24.700;2024-01-15T08:15:22;96917.50;;;9.08;54.26
6094;BME280;19964;42.060;24.700;2024-01-15T08:17:49;96914.28;;;8.89;55.04
6094;BME280;19964;42.060;24.700;2024-01-15T08:20:17;96928.25;;;8.65;53.73
6094;BME280;19964;42.060;24.700;2024-01-15T08:22:44;96927.06;;;7.51;54.57
6094;BME280;19964;42.060;24.700;2024-01-15T08:25:13;96929.63;;;5.43;60.21
6094;BME280;19964;42.060;24.700;2024-01-15T08:27:40;96937.28;;;5.06;62.54
6094;BME280;19964;42.060;24.700;2024-01-15T08:30:09;96906.75;;;4.21;67.50
6094;BME280;19964;42.060;24.700;2024-01-15T08:32:36;96928.97;;;4.60;68.88
6094;BME280;19964;42.060;24.700;2024-01-15T08:35:07;96926.63;;;4.25;70.46
6094;BME280;19964;42.060;24.700;2024-01-15T08:37:34;96748.13;;;2.56;70.21
6094;BME280;19964;42.060;24.700;2024-01-15T08:40:01;96830.81;;;2.83;72.50
6094;BME280;19964;42.060;24.700;2024-01-15T08:42:30;96909.94;;;2.22;76.99
6094;BME280;19964;42.060;24.700;2024-01-15T08:44:57;96901.50;;;1.94;78.79
6094;BME280;19964;42.060;24.700;2024-01-15T08:47:24;96889.13;;;2.25;80.01
6094;BME280;19964;42.060;24.700;2024-01-15T08:49:51;96881.72;;;2.71;78.23
6094;BME280;19964;42.060;24.700;2024-01-15T08:52:18;96875.72;;;2.98;77.55
6094;BME280;19964;42.060;24.700;2024-01-15T08:54:45;96860.97;;;3.13;76.80
6094;BME280;19964;42.060;24.700;2024-01-15T08:57:12;96851.94;;;3.30;76.33
6094;BME280;19964;42.060;24.700;2024-01-15T08:59:41;96837.78;;;3.34;76.35
6094;BME280;19964;42.060;24.700;2024-01-15T09:02:08;96846.47;;;3.53;76.53
6094;BME280;19964;42.060;24.700;2024-01-15T09:04:35;96843.50;;;3.76;76.48
6094;BME280;19964;42.060;24.700;2024-01-15T09:07:02;96834.59;;;4.04;75.75
6094;BME280;19964;42.060;24.700;2024-01-15T09:09:29;96837.78;;;3.87;75.13
6094;BME280;19964;42.060;24.700;2024-01-15T09:11:56;96833.66;;;3.73;75.22
6094;BME280;19964;42.060;24.700;2024-01-15T09:14:23;96844.28;;;3.96;73.60
6094;BME280;19964;42.060;24.700;2024-01-15T09:16:53;96835.81;;;3.76;72.09
6094;BME280;19964;42.060;24.700;2024-01-15T09:19:21;96834.63;;;3.91;75.25
6094;BME280;19964;42.060;24.700;2024-01-15T09:21:48;96839.75;;;3.85;77.25
6094;BME280;19964;42.060;24.700;2024-01-15T09:24:15;96832.63;;;4.06;76.98
6094;BME280;19964;42.060;24.700;2024-01-15T09:26:42;96849.59;;;3.75;79.36
6094;BME280;19964;42.060;24.700;2024-01-15T09:29:10;96848.63;;;3.49;80.17
6094;BME280;19964;42.060;24.700;2024-01-15T09:31:37;96839.13;;;3.11;81.65
6094;BME280;19964;42.060;24.700;2024-01-15T09:34:05;96825.59;;;2.56;83.19
6094;BME280;19964;42.060;24.700;2024-01-15T09:36:32;96829.41;;;2.80;84.31
6094;BME280;19964;42.060;24.700;2024-01-15T09:38:59;96823.38;;;3.20;83.79
6094;BME280;19964;42.060;24.700;2024-01-15T09:41:27;96807.03;;;4.00;81.28
6094;BME280;19964;42.060;24.700;2024-01-15T09:43:54;96809.66;;;4.44;78.41
6094;BME280;19964;42.060;24.700;2024-01-15T09:46:21;96805.81;;;4.15;77.14
6094;BME280;19964;42.060;24.700;2024-01-15T09:48:48;96805.47;;;3.07;81.38
6094;BME280;19964;42.060;24.700;2024-01-15T09:51:17;96796.97;;;2.94;85.12
6094;BME280;19964;42.060;24.700;2024-01-15T09:53:45;96775.94;;;2.98;84.13
6094;BME280;19964;42.060;24.700;2024-01-15T09:56:13;96774.19;;;3.64;82.15
6094;BME280;19964;42.060;24.700;2024-01-15T09:58:41;96784.41;;;3.84;80.22
6094;BME280;19964;42.060;24.700;2024-01-15T10:01:08;96777.53;;;3.51;79.03
6094;BME280;19964;42.060;24.700;2024-01-15T10:03:36;96782.44;;;3.20;81.36
6094;BME280;19964;42.060;24.700;2024-01-15T10:06:04;96787.16;;;2.97;82.42
6094;BME280;19964;42.060;24.700;2024-01-15T10:08:35;96774.38;;;3.04;82.41
6094;BME280;19964;42.060;24.700;2024-01-15T10:11:03;96762.97;;;3.00;82.69
6094;BME280;19964;42.060;24.700;2024-01-15T10:13:30;96770.44;;;3.14;83.07
6094;BME280;19964;42.060;24.700;2024-01-15T10:15:57;96773.41;;;3.44;81.15
6094;BME280;19964;42.060;24.700;2024-01-15T10:18:26;96769.88;;;3.45;80.60
6094;BME280;19964;42.060;24.700;2024-01-15T10:20:53;96764.50;;;3.86;79.24
6094;BME280;19964;42.060;24.700;2024-01-15T10:23:20;96759.88;;;4.14;78.14
6094;BME280;19964;42.060;24.700;2024-01-15T10:25:48;96763.81;;;4.10;76.87
6094;BME280;19964;42.060;24.700;2024-01-15T10:28:18;96758.19;;;4.39;77.07
6094;BME280;19964;42.060;24.700;2024-01-15T10:30:46;96739.84;;;3.98;76.87
6094;BME280;19964;42.060;24.700;2024-01-15T10:33:13;96730.19;;;3.87;78.65
6094;BME280;19964;42.060;24.700;2024-01-15T10:35:41;96728.88;;;4.28;76.14
6094;BME280;19964;42.060;24.700;2024-01-15T10:38:08;96705.38;;;5.00;74.46
6094;BME280;19964;42.060;24.700;2024-01-15T10:40:35;96674.38;;;5.63;71.96
6094;BME280;19964;42.060;24.700;2024-01-15T10:43:03;96688.72;;;5.95;68.01
6094;BME280;19964;42.060;24.700;2024-01-15T10:45:31;96690.03;;;6.45;64.47
6094;BME280;19964;42.060;24.700;2024-01-15T10:47:58;96697.31;;;6.89;59.28
6094;BME280;19964;42.060;24.700;2024-01-15T10:50:29;96677.41;;;6.44;62.06
6094;BME280;19964;42.060;24.700;2024-01-15T10:52:56;96655.25;;;6.84;60.22
6094;BME280;19964;42.060;24.700;2024-01-15T10:55:24;96660.63;;;7.52;59.31
6094;BME280;19964;42.060;24.700;2024-01-15T10:57:53;96663.00;;;6.54;60.32
6094;BME280;19964;42.060;24.700;2024-01-15T11:00:23;96659.00;;;6.28;59.83
6094;BME280;19964;42.060;24.700;2024-01-15T11:02:51;96668.81;;;6.61;59.23
6094;BME280;19964;42.060;24.700;2024-01-15T11:05:21;96665.00;;;7.40;58.35
6094;BME280;19964;42.060;24.700;2024-01-15T11:07:49;96666.22;;;6.91;58.90
6094;BME280;19964;42.060;24.700;2024-01-15T11:10:40;96669.25;;;6.88;58.44
6094;BME280;19964;42.060;24.700;2024-01-15T11:13:09;96665.88;;;5.87;61.66
6094;BME280;19964;42.060;24.700;2024-01-15T11:15:56;96666.06;;;6.33;61.63
6094;BME280;19964;42.060;24.700;2024-01-15T11:18:23;96660.88;;;6.21;60.23
6094;BME280;19964;42.060;24.700;2024-01-15T11:21:22;96661.59;;;5.74;60.57
6094;BME280;19964;42.060;24.700;2024-01-15T11:23:51;96654.31;;;6.07;61.48
6094;BME280;19964;42.060;24.700;2024-01-15T11:26:35;96639.25;;;6.41;60.92
6094;BME280;19964;42.060;24.700;2024-01-15T11:29:04;96641.91;;;6.75;59.11
6094;BME280;19964;42.060;24.700;2024-01-15T11:31:57;96645.56;;;6.56;59.14
6094;BME280;19964;42.060;24.700;2024-01-15T11:34:52;96640.72;;;6.48;59.93
6094;BME280;19964;42.060;24.700;2024-01-15T11:37:20;96632.16;;;5.59;62.92
6094;BME280;19964;42.060;24.700;2024-01-15T11:39:51;96633.47;;;6.15;63.40
6094;BME280;19964;42.060;24.700;2024-01-15T11:42:19;96641.47;;;6.37;62.00
6094;BME280;19964;42.060;24.700;2024-01-15T11:44:46;96625.00;;;6.26;62.65
6094;BME280;19964;42.060;24.700;2024-01-15T11:47:15;96607.91;;;5.91;65.15
6094;BME280;19964;42.060;24.700;2024-01-15T11:49:58;96613.59;;;6.22;64.49
6094;BME280;19964;42.060;24.700;2024-01-15T11:52:26;96600.97;;;6.32;63.75
6094;BME280;19964;42.060;24.700;2024-01-15T11:55:01;96603.56;;;6.32;63.19
6094;BME280;19964;42.060;24.700;2024-01-15T11:57:35;96600.00;;;5.68;64.04
6094;BME280;19964;42.060;24.700;2024-01-15T12:00:04;96622.44;;;5.42;64.95
6094;BME280;19964;42.060;24.700;2024-01-15T12:02:33;96591.31;;;5.32;65.98
6094;BME280;19964;42.060;24.700;2024-01-15T12:05:00;96615.16;;;5.58;65.12
6094;BME280;19964;42.060;24.700;2024-01-15T12:07:28;96605.16;;;5.68;64.30
6094;BME280;19964;42.060;24.700;2024-01-15T12:09:56;96617.84;;;5.99;63.85
6094;BME280;19964;42.060;24.700;2024-01-15T12:12:27;96617.28;;;6.26;63.51
6094;BME280;19964;42.060;24.700;2024-01-15T12:14:55;96596.84;;;6.32;63.29
6094;BME280;19964;42.060;24.700;2024-01-15T12:17:23;96611.69;;;6.59;62.18
6094;BME280;19964;42.060;24.700;2024-01-15T12:19:51;96609.66;;;6.61;61.13
6094;BME280;19964;42.060;24.700;2024-01-15T12:22:18;96602.63;;;6.68;61.25
6094;BME280;19964;42.060;24.700;2024-01-15T12:24:45;96599.25;;;6.68;61.58
6094;BME280;19964;42.060;24.700;2024-01-15T12:27:12;96571.84;;;6.73;61.30
6094;BME280;19964;42.060;24.700;2024-01-15T12:29:39;96599.59;;;6.83;60.66
6094;BME280;19964;42.060;24.700;2024-01-15T12:32:06;96598.41;;;6.03;59.99
6094;BME280;19964;42.060;24.700;2024-01-15T12:34:33;96604.41;;;5.67;60.72
6094;BME280;19964;42.060;24.700;2024-01-15T12:37:02;96581.47;;;5.84;60.82
6094;BME280;19964;42.060;24.700;2024-01-15T12:39:29;96596.88;;;5.66;60.62
6094;BME280;19964;42.060;24.700;2024-01-15T12:41:57;96607.16;;;5.29;63.06
6094;BME280;19964;42.060;24.700;2024-01-15T12:44:24;96608.72;;;4.88;65.32
6094;BME280;19964;42.060;24.700;2024-01-15T12:46:51;96609.91;;;4.67;66.72
6094;BME280;19964;42.060;24.700;2024-01-15T12:49:18;96602.66;;;4.33;67.79
6094;BME280;19964;42.060;24.700;2024-01-15T12:51:52;96591.13;;;4.48;68.22
6094;BME280;19964;42.060;24.700;2024-01-15T12:54:20;96577.66;;;4.78;67.97
6094;BME280;19964;42.060;24.700;2024-01-15T12:56:47;96574.84;;;5.04;66.74
6094;BME280;19964;42.060;24.700;2024-01-15T12:59:14;96588.28;;;5.24;66.62
6094;BME280;19964;42.060;24.700;2024-01-15T13:01:41;96581.84;;;5.15;66.84
6094;BME280;19964;42.060;24.700;2024-01-15T13:04:08;96569.66;;;5.47;66.44
6094;BME280;19964;42.060;24.700;2024-01-15T13:06:35;96568.84;;;5.64;65.71